Spangler, PA (15775)

08:23 AM EDT del 30 Maggio 2015 (GMT -0400)
Nicktown | | Change Station
CLOSE
Current Station
Stazione meteo personale
Location: Nicktown, PA
Altitudine: 1837 ft
Stazioni meteo nelle vicinanze

Alt. 1837 ft 40.62 °N, 78.83 °W | Updated 9 minutes ago

Parzialmente nuvoloso
Parzialmente nuvoloso
69.8 °F
Sembra 69.8 °F
N
3.7
Vento Variabile Vento da SSE

Oggi
Massima -- | Minima -- °F
--% Possibilità di precip.
Ieri
Massima -- | Minima -- °F
Precip. -- in
5:47 AM 8:38 PM
Gobba a ponente, 90% visible
Pressione 30.19 in
Visibilità 10.0 miglia
Nuvole Sereno
Punto di rugiada 64 °F
Umidità 83%
Piovosità 0.00 in
Spessore del manto nevoso Non disponibile.
Raggi UV 2 fuori da 12
Polline 8.50 fuori da 12
Qualità dell'aria Non disponibile.
Flu Activity Sporadic
METAR KIDI 301215Z AUTO 23006KT 10SM CLR 22/18 A3019 RMK A01

More Conditions Fewer Conditions

Pressione 30.19 in
Visibilità 10.0 miglia
Nuvole Sereno
Punto di rugiada 64 °F
Umidità 83%
Piovosità 0.00 in
Spessore del manto nevoso Non disponibile.
Raggi UV 2 fuori da 12
Polline 8.50 fuori da 12
Qualità dell'aria Non disponibile.
Flu Activity Sporadic
METAR KIDI 301215Z AUTO 23006KT 10SM CLR 22/18 A3019 RMK A01

More Conditions Fewer Conditions

10-Day Weather Forecast

Almanac

Astronomia

May. 30, 2015 Alba Tramonto
Ora attuale
Crepuscolo civile
Crepuscolo nautico
Crepuscolo astronomico
Luna
Estensione della luce visibile
Lunghezza del giorno
Tomorrow will be .
, % of the Moon is Illuminated

Gli estremi di oggi

State Highs State Lows

Community

WunderPhotos

Upload Photos

1,825,494 foto caricate!

WunderBlogs® & News

Nearby

Qualità dell'aria

  Qualità dell'aria Indice AQ Inquinante
Not available.

Profondità neve

Stazione Profondità Altitudine

Attività sismica

Città  Distanza Mag. Data & Ora
Minimo Magnitudo Mostrato è 2.5.

Temperature delle acque costiere

Località Temperatura

Stations

Stazioni meteo nelle vicinanze

Ubicazione della stazione Temp. Raffreddamento del vento Punto di rugiada Umidità Vento Precip. Alt. Aggiornato Tipo